Station info - map view · info · telemetry · weather · raw · status · beacons · messages · bulletins · browse · moving · my account
Callsign, ship name or locator: Clear       
It is possible to search using wildcards (*?) after a prefix. Example: OH*
APRS station YU7ORE-9 - show graphs
Map loading...
Comment: op.Dali/yu7ore@gmail.com
Location: 49°27.27' N 11°00.54' E - locator JN59MK19BB - show map - static map
2.6 miles North bearing 352° from Stein bei Nürnberg, Bavaria, Germany [?]
2.7 miles West bearing 280° from Nuremberg, Bavaria, Germany
75.3 miles North bearing 4° from Augsburg, Regierungsbezirk Schwaben, Bavaria, Germany
Last position: 2017-11-13 11:56:31 EST (6d 12h44m ago)
2017-11-13 17:56:31 CET local time at Stein bei Nürnberg, Germany [?]
Altitude: 953 ft
Course: 24°
Speed: 21 MPH
Device: Open Source: APRSdroid (app, Android)
Last path: YU7ORE-9>APDR14 via WIDE1-1,WIDE2-2,qAR,DB0VOX (good)
Positions stored: 1278
Other SSIDs: YU7ORE YU7ORE-5
Stations near current position of YU7ORE-9 - show more
callsign distance last heard - EST      callsign distance last heard - EST
DO1CKN-101.2 miles 218°2017-11-17 10:51:36 DG8YHQ1.3 miles 107°2017-10-31 08:45:34
DK5RAS-71.7 miles 317°2017-11-19 23:40:18 DK5RAS1.7 miles 316°2017-11-19 10:37:01
DL8TW-71.8 miles 133°2017-11-14 12:18:34 DG4NAA-91.8 miles 319°2017-11-17 07:23:01
DG4NAA-71.9 miles 320°2017-11-20 00:36:54 DG4NAA-111.9 miles 320°2017-11-15 06:30:19
DG4NAA-21.9 miles 320°2017-11-01 11:04:40 DG4NAA-11.9 miles 320°2017-11-19 13:23:34
67HZ1.9 miles 320°2017-11-12 00:12:10 DC3RJ-21.9 miles 104°2017-11-12 12:30:04
DO6BR-51.9 miles 36°2017-11-19 09:23:44 DL3NGN-71.9 miles 127°2017-11-18 16:03:22
DC9JVN DP2.2 miles 41°2017-11-06 15:54:57 DB0VOX B2.4 miles 146°2017-11-20 00:36:20
DB0VOX-B2.4 miles 146°2017-11-20 00:36:30 DB0VOX AD2.4 miles 146°2017-11-20 00:36:40
PS-DB0VOX2.4 miles 145°2017-11-20 00:00:04 DB0VOX2.5 miles 142°2017-11-20 00:22:50
Stations which heard YU7ORE-9 directly on radio –
callsign pkts first heard - EST last heard longest (tx => rx) longest at - EST
OE5XOR 5 2017-11-13 08:12:05 2017-11-13 08:48:15 JN77BU > JN78DJ 39.4 miles 7° 2017-11-13 08:12:05
OE6XTR 10 2017-11-13 03:09:03 2017-11-13 06:22:29 JN86HG > JN77VN 98.9 miles 337° 2017-11-13 03:09:03
DB0VOX 9 2017-11-13 11:31:49 2017-11-13 11:56:31 JN59NJ > JN59MK 5.8 miles 295° 2017-11-13 11:31:49
OE2XHR-11 5 2017-11-13 08:35:11 2017-11-13 09:19:58 JN68RL > JN67MK 74.1 miles 194° 2017-11-13 09:19:58
DB0LP 7 2017-11-13 10:56:02 2017-11-13 11:14:36 JN59SH > JN59UD 12.9 miles 148° 2017-11-13 11:14:36
OE6XRR 1 2017-11-13 06:29:41 2017-11-13 06:29:41 JN76RW > JN77QC 10.0 miles 343° 2017-11-13 06:29:41
DH9RCG 4 2017-11-13 09:19:54 2017-11-13 09:30:26 JN68RL > JN68SO 10.7 miles 17° 2017-11-13 09:19:54
OE3XXR 1 2017-11-13 08:12:11 2017-11-13 08:12:11 JN77BU > JN78GD 27.4 miles 40° 2017-11-13 08:12:11
OE5XDO-10 4 2017-11-13 08:48:32 2017-11-13 09:25:26 JN68UE > JN68VM 22.7 miles 17° 2017-11-13 08:48:32
HG3PMF-1 5 2017-11-13 00:52:19 2017-11-13 01:01:41 JN85TR > JN96CC 38.5 miles 50° 2017-11-13 01:01:41
OE6XLR-11 25 2017-11-13 03:48:53 2017-11-13 07:27:43 JN86CI > JN77OI 84.6 miles 326° 2017-11-13 03:48:53
OE5XIM-10 3 2017-11-13 08:25:57 2017-11-13 08:50:47 JN68TF > JN78DN 37.9 miles 50° 2017-11-13 08:50:47
DH2RL-2 1 2017-11-13 10:22:23 2017-11-13 10:22:23 JN68EX > JN68CQ 22.1 miles 197° 2017-11-13 10:22:23
OE5XGL-10 2 2017-11-13 08:36:10 2017-11-13 08:46:41 JN68XE > JN67VV 20.9 miles 202° 2017-11-13 08:36:10
OE5REO-10 8 2017-11-13 08:14:05 2017-11-13 08:34:29 JN68XD > JN77BV 18.6 miles 158° 2017-11-13 08:34:29
OE2XZR-10 1 2017-11-13 09:24:31 2017-11-13 09:24:31 JN68RL > JN67NT 50.3 miles 197° 2017-11-13 09:24:31
9A7KXP-1 6 2017-11-13 03:48:58 2017-11-13 05:57:09 JN76TR > JN75XV 60.7 miles 165° 2017-11-13 05:57:09
DB0POB 1 2017-11-13 10:51:17 2017-11-13 10:51:17 JN59WB > JN58QP 37.3 miles 220° 2017-11-13 10:51:17
DB0EBZ 1 2017-11-13 11:24:48 2017-11-13 11:24:48 JN59PJ > JN59GB 41.8 miles 238° 2017-11-13 11:24:48
DO2HBA-6 2 2017-11-13 09:30:34 2017-11-13 09:41:49 JN68QM > JN68SS 18.4 miles 23° 2017-11-13 09:30:34
S55YZA-11 1 2017-11-13 06:29:49 2017-11-13 06:29:49 JN76RW > JN76NE 55.1 miles 197° 2017-11-13 06:29:49
DL6DJ 3 2017-11-13 10:49:26 2017-11-13 10:53:00 JN59XB > JN59WB 2.5 miles 325° 2017-11-13 10:49:26
OE6XBF-11 40 2017-11-13 03:58:26 2017-11-13 06:27:55 JN86CI > JN76XU 36.1 miles 340° 2017-11-13 03:58:26
OE6ASF 1 2017-11-13 07:44:27 2017-11-13 07:44:27 JN77DN > JN77CN 4.7 miles 285° 2017-11-13 07:44:27
YU0XFG-1 341 2017-10-31 20:10:58 2017-11-12 22:56:18 JN95NM > JN95WD 44.0 miles 126° 2017-11-12 22:56:18
DB0PAS-10 11 2017-11-13 09:26:12 2017-11-13 09:45:38 JN68OQ > JN68SO 15.9 miles 113° 2017-11-13 09:45:38
9A7KXP 2 2017-11-13 04:48:03 2017-11-13 05:02:56 JN86AP > JN85DT 58.0 miles 167° 2017-11-13 05:02:56
OE2XWR-10 1 2017-11-13 09:28:06 2017-11-13 09:28:06 JN68RM > JN67IE 97.8 miles 201° 2017-11-13 09:28:06
DL6RBG-11 18 2017-11-13 08:57:53 2017-11-13 09:48:12 JN68RG > JN68QM 18.5 miles 341° 2017-11-13 08:57:53
DB0PAS-1 10 2017-11-13 09:25:56 2017-11-13 09:46:53 JN68OQ > JN68SO 17.9 miles 114° 2017-11-13 09:46:53
DB0RDH-10 11 2017-11-13 09:53:28 2017-11-13 10:23:14 JN68DX > JN68KW 24.4 miles 97° 2017-11-13 10:23:14
DB0RGB 5 2017-11-13 10:40:04 2017-11-13 10:49:41 JN59XB > JN69BA 8.5 miles 115° 2017-11-13 10:49:41
OE6XAR-1 1 2017-11-13 07:06:05 2017-11-13 07:06:05 JN77MH > JN77EG 31.5 miles 263° 2017-11-13 07:06:05
OE6XG-1 19 2017-11-13 04:31:39 2017-11-13 06:50:05 JN86CM > JN77OD 61.6 miles 313° 2017-11-13 04:31:39
HA8LHT-1 2 2017-11-13 00:21:35 2017-11-13 00:27:30 JN95AS > JN95DU 12.9 miles 64° 2017-11-13 00:27:30
9A1AYZ-11 1 2017-11-13 04:04:35 2017-11-13 04:04:35 JN86BJ > JN75TR 52.5 miles 210° 2017-11-13 04:04:35
DB0TS-10 1 2017-11-13 10:52:15 2017-11-13 10:52:15 JN59WC > JN69EM 38.8 miles 36° 2017-11-13 10:52:15
OE5KNT-10 4 2017-11-13 08:24:09 2017-11-13 08:52:47 JN78AA > JN68XH 21.9 miles 341° 2017-11-13 08:24:09

Only position packets which were originated by the station are shown here. The range statistics show some extra long hops, because some digipeaters do not correctly add themselves to the digipeater path. Please check the raw packets.
About this site
This page shows real-time information collected from the Automatic Position Reporting System Internet network (APRS-IS). APRS is used by amateur (ham) radio operators to transmit real-time position information, weather data, telemetry and messages over the radio. A vehicle equipped with a GPS receiver, a VHF transmitter or HF transceiver and a small computer device called a tracker transmits it's location, speed and course in a small data packet, which is then received by a nearby iGate receiving site which forwards the packet on the Internet. Systems connected to the Internet can send information on the APRS-IS without a radio transmitter, or collect and display information transmitted anywhere in the world.
FAQ · Blog · Discussion group · Linking to aprs.fi · AIS sites · Service status · Database statistics · Advertising on aprs.fi · Technical details · API · Change log · Planned changes · Credits and thanks · Terms Of Service · iPhone/iPad APRS